sensor_id;sensor_type;location;lat;lon;timestamp;temperature;humidity
55036;DHT22;40936;53.008;6.556;2023-04-06T00:01:10;1.70;41.10
55036;DHT22;40936;53.008;6.556;2023-04-06T00:03:36;3.90;71.30
55036;DHT22;40936;53.008;6.556;2023-04-06T00:06:02;2.60;36.90
55036;DHT22;40936;53.008;6.556;2023-04-06T00:08:28;1.70;38.60
55036;DHT22;40936;53.008;6.556;2023-04-06T00:10:54;2.00;90.10
55036;DHT22;40936;53.008;6.556;2023-04-06T00:13:20;3.00;73.40
55036;DHT22;40936;53.008;6.556;2023-04-06T00:15:46;1.50;74.10
55036;DHT22;40936;53.008;6.556;2023-04-06T00:18:11;1.70;44.40
55036;DHT22;40936;53.008;6.556;2023-04-06T00:20:37;1.60;45.30
55036;DHT22;40936;53.008;6.556;2023-04-06T00:23:03;1.60;45.70
55036;DHT22;40936;53.008;6.556;2023-04-06T00:25:29;1.40;78.20
55036;DHT22;40936;53.008;6.556;2023-04-06T00:27:54;2.10;43.10
55036;DHT22;40936;53.008;6.556;2023-04-06T00:30:21;1.90;86.20
55036;DHT22;40936;53.008;6.556;2023-04-06T00:32:46;1.50;45.70
55036;DHT22;40936;53.008;6.556;2023-04-06T00:35:12;2.40;49.40
55036;DHT22;40936;53.008;6.556;2023-04-06T00:37:38;2.10;99.60
55036;DHT22;40936;53.008;6.556;2023-04-06T00:40:04;2.30;51.40
55036;DHT22;40936;53.008;6.556;2023-04-06T00:42:30;1.30;45.30
55036;DHT22;40936;53.008;6.556;2023-04-06T00:44:58;1.50;48.30
55036;DHT22;40936;53.008;6.556;2023-04-06T00:47:25;-0.20;95.40
55036;DHT22;40936;53.008;6.556;2023-04-06T00:49:52;1.60;55.00
55036;DHT22;40936;53.008;6.556;2023-04-06T00:52:18;3.60;55.00
55036;DHT22;40936;53.008;6.556;2023-04-06T00:54:43;1.80;94.30
55036;DHT22;40936;53.008;6.556;2023-04-06T00:57:11;1.40;61.60
55036;DHT22;40936;53.008;6.556;2023-04-06T01:02:03;1.00;99.90
55036;DHT22;40936;53.008;6.556;2023-04-06T01:04:29;1.80;98.00
55036;DHT22;40936;53.008;6.556;2023-04-06T01:06:55;2.20;66.00
55036;DHT22;40936;53.008;6.556;2023-04-06T01:09:22;1.20;99.90
55036;DHT22;40936;53.008;6.556;2023-04-06T01:14:14;1.10;99.70
55036;DHT22;40936;53.008;6.556;2023-04-06T01:16:40;0.90;99.90
55036;DHT22;40936;53.008;6.556;2023-04-06T01:19:12;1.00;54.00
55036;DHT22;40936;53.008;6.556;2023-04-06T01:21:39;2.00;99.90
55036;DHT22;40936;53.008;6.556;2023-04-06T01:24:06;2.40;69.30
55036;DHT22;40936;53.008;6.556;2023-04-06T01:26:32;1.80;94.20
55036;DHT22;40936;53.008;6.556;2023-04-06T01:28:58;1.60;58.70
55036;DHT22;40936;53.008;6.556;2023-04-06T01:31:24;0.80;89.60
55036;DHT22;40936;53.008;6.556;2023-04-06T01:33:50;0.90;59.00
55036;DHT22;40936;53.008;6.556;2023-04-06T01:36:16;1.40;65.40
55036;DHT22;40936;53.008;6.556;2023-04-06T01:38:42;0.90;99.90
55036;DHT22;40936;53.008;6.556;2023-04-06T01:41:08;1.30;60.10
55036;DHT22;40936;53.008;6.556;2023-04-06T01:43:34;0.30;99.90
55036;DHT22;40936;53.008;6.556;2023-04-06T01:46:00;0.90;58.00
55036;DHT22;40936;53.008;6.556;2023-04-06T01:48:27;0.80;95.70
55036;DHT22;40936;53.008;6.556;2023-04-06T01:50:53;2.10;60.40
55036;DHT22;40936;53.008;6.556;2023-04-06T01:55:45;-0.30;98.30
55036;DHT22;40936;53.008;6.556;2023-04-06T01:58:11;0.80;62.20
55036;DHT22;40936;53.008;6.556;2023-04-06T02:00:37;0.90;98.80
55036;DHT22;40936;53.008;6.556;2023-04-06T02:03:03;2.90;64.40
55036;DHT22;40936;53.008;6.556;2023-04-06T02:05:30;0.70;99.40
55036;DHT22;40936;53.008;6.556;2023-04-06T02:07:56;0.90;65.50
55036;DHT22;40936;53.008;6.556;2023-04-06T02:10:22;1.60;67.20
55036;DHT22;40936;53.008;6.556;2023-04-06T02:12:49;2.70;69.40
55036;DHT22;40936;53.008;6.556;2023-04-06T02:15:15;2.00;68.80
55036;DHT22;40936;53.008;6.556;2023-04-06T02:17:41;2.10;99.90
55036;DHT22;40936;53.008;6.556;2023-04-06T02:20:07;1.90;77.30
55036;DHT22;40936;53.008;6.556;2023-04-06T02:22:35;2.60;99.90
55036;DHT22;40936;53.008;6.556;2023-04-06T02:25:00;0.80;99.90
55036;DHT22;40936;53.008;6.556;2023-04-06T02:27:27;0.60;70.50
55036;DHT22;40936;53.008;6.556;2023-04-06T02:29:52;1.80;62.10
55036;DHT22;40936;53.008;6.556;2023-04-06T02:32:18;2.70;65.50
55036;DHT22;40936;53.008;6.556;2023-04-06T02:34:44;1.40;99.00
55036;DHT22;40936;53.008;6.556;2023-04-06T02:37:10;1.30;60.60
55036;DHT22;40936;53.008;6.556;2023-04-06T02:39:36;0.40;99.90
55036;DHT22;40936;53.008;6.556;2023-04-06T02:42:01;1.80;99.90
55036;DHT22;40936;53.008;6.556;2023-04-06T02:44:27;0.10;99.90
55036;DHT22;40936;53.008;6.556;2023-04-06T02:46:53;0.30;99.90
55036;DHT22;40936;53.008;6.556;2023-04-06T02:49:19;0.60;93.90
55036;DHT22;40936;53.008;6.556;2023-04-06T02:51:44;0.50;99.90
55036;DHT22;40936;53.008;6.556;2023-04-06T02:54:10;0.60;99.90
55036;DHT22;40936;53.008;6.556;2023-04-06T02:56:36;1.10;99.90
55036;DHT22;40936;53.008;6.556;2023-04-06T02:59:01;0.80;99.90
55036;DHT22;40936;53.008;6.556;2023-04-06T03:01:27;-0.30;99.90
55036;DHT22;40936;53.008;6.556;2023-04-06T03:03:53;1.60;99.90
55036;DHT22;40936;53.008;6.556;2023-04-06T03:06:18;1.10;99.90
55036;DHT22;40936;53.008;6.556;2023-04-06T03:08:44;0.60;99.90
55036;DHT22;40936;53.008;6.556;2023-04-06T03:11:10;0.10;99.90
55036;DHT22;40936;53.008;6.556;2023-04-06T03:13:36;2.80;99.90
55036;DHT22;40936;53.008;6.556;2023-04-06T03:16:04;2.50;99.90
55036;DHT22;40936;53.008;6.556;2023-04-06T03:18:31;0.70;99.90
55036;DHT22;40936;53.008;6.556;2023-04-06T03:20:57;1.30;99.90
55036;DHT22;40936;53.008;6.556;2023-04-06T03:23:22;2.60;99.90
55036;DHT22;40936;53.008;6.556;2023-04-06T03:25:48;0.40;99.90
55036;DHT22;40936;53.008;6.556;2023-04-06T03:28:14;-0.30;99.90
55036;DHT22;40936;53.008;6.556;2023-04-06T03:30:41;0.40;99.90
55036;DHT22;40936;53.008;6.556;2023-04-06T03:33:07;1.80;99.90
55036;DHT22;40936;53.008;6.556;2023-04-06T03:35:32;2.60;99.90
55036;DHT22;40936;53.008;6.556;2023-04-06T03:37:58;1.00;99.90
55036;DHT22;40936;53.008;6.556;2023-04-06T03:40:24;2.20;99.90
55036;DHT22;40936;53.008;6.556;2023-04-06T03:42:50;0.90;99.90
55036;DHT22;40936;53.008;6.556;2023-04-06T03:47:42;0.10;99.90
55036;DHT22;40936;53.008;6.556;2023-04-06T03:50:08;1.20;99.90
55036;DHT22;40936;53.008;6.556;2023-04-06T03:52:35;0.80;99.90
55036;DHT22;40936;53.008;6.556;2023-04-06T03:55:01;1.00;99.90
55036;DHT22;40936;53.008;6.556;2023-04-06T03:57:27;1.40;99.90
55036;DHT22;40936;53.008;6.556;2023-04-06T03:59:53;0.60;99.90
55036;DHT22;40936;53.008;6.556;2023-04-06T04:02:18;-0.10;99.90
55036;DHT22;40936;53.008;6.556;2023-04-06T04:04:44;0.40;99.90
55036;DHT22;40936;53.008;6.556;2023-04-06T04:07:10;0.80;99.90
55036;DHT22;40936;53.008;6.556;2023-04-06T04:09:37;2.30;99.90
55036;DHT22;40936;53.008;6.556;2023-04-06T04:12:02;2.00;99.90
55036;DHT22;40936;53.008;6.556;2023-04-06T04:14:28;0.30;99.90
55036;DHT22;40936;53.008;6.556;2023-04-06T04:16:54;0.50;99.90
55036;DHT22;40936;53.008;6.556;2023-04-06T04:19:20;1.90;99.90
55036;DHT22;40936;53.008;6.556;2023-04-06T04:21:46;0.80;99.90
55036;DHT22;40936;53.008;6.556;2023-04-06T04:24:12;1.50;99.90
55036;DHT22;40936;53.008;6.556;2023-04-06T04:26:38;2.10;99.90
55036;DHT22;40936;53.008;6.556;2023-04-06T04:29:04;1.90;99.90
55036;DHT22;40936;53.008;6.556;2023-04-06T04:31:30;0.90;99.90
55036;DHT22;40936;53.008;6.556;2023-04-06T04:33:56;1.40;99.90
55036;DHT22;40936;53.008;6.556;2023-04-06T04:38:49;0.90;99.90
55036;DHT22;40936;53.008;6.556;2023-04-06T04:41:15;2.20;99.90
55036;DHT22;40936;53.008;6.556;2023-04-06T04:43:41;1.60;99.90
55036;DHT22;40936;53.008;6.556;2023-04-06T04:46:07;0.60;99.90
55036;DHT22;40936;53.008;6.556;2023-04-06T04:48:33;3.60;99.90
55036;DHT22;40936;53.008;6.556;2023-04-06T04:50:58;1.40;99.90
55036;DHT22;40936;53.008;6.556;2023-04-06T04:53:24;1.80;99.90
55036;DHT22;40936;53.008;6.556;2023-04-06T04:55:50;3.40;99.90
55036;DHT22;40936;53.008;6.556;2023-04-06T04:58:15;1.50;99.90
55036;DHT22;40936;53.008;6.556;2023-04-06T05:00:42;1.80;99.90
55036;DHT22;40936;53.008;6.556;2023-04-06T05:03:09;2.20;99.90
55036;DHT22;40936;53.008;6.556;2023-04-06T05:05:37;1.00;99.90
55036;DHT22;40936;53.008;6.556;2023-04-06T05:08:03;0.90;99.90
55036;DHT22;40936;53.008;6.556;2023-04-06T05:10:29;1.20;99.90
55036;DHT22;40936;53.008;6.556;2023-04-06T05:12:54;1.50;99.90
55036;DHT22;40936;53.008;6.556;2023-04-06T05:15:20;1.00;99.90
55036;DHT22;40936;53.008;6.556;2023-04-06T05:17:46;1.00;99.90
55036;DHT22;40936;53.008;6.556;2023-04-06T05:20:11;2.00;99.90
55036;DHT22;40936;53.008;6.556;2023-04-06T05:25:04;2.70;99.90
55036;DHT22;40936;53.008;6.556;2023-04-06T05:27:29;2.00;99.90
55036;DHT22;40936;53.008;6.556;2023-04-06T05:32:21;1.20;99.90
55036;DHT22;40936;53.008;6.556;2023-04-06T05:34:49;1.30;99.90
55036;DHT22;40936;53.008;6.556;2023-04-06T05:39:41;1.40;99.90
55036;DHT22;40936;53.008;6.556;2023-04-06T05:42:07;0.90;99.90
55036;DHT22;40936;53.008;6.556;2023-04-06T05:44:33;4.20;99.90
55036;DHT22;40936;53.008;6.556;2023-04-06T05:46:59;2.20;99.90
55036;DHT22;40936;53.008;6.556;2023-04-06T05:49:24;1.60;99.90
55036;DHT22;40936;53.008;6.556;2023-04-06T05:51:50;3.10;99.90
55036;DHT22;40936;53.008;6.556;2023-04-06T05:54:16;1.60;99.90
55036;DHT22;40936;53.008;6.556;2023-04-06T05:56:41;1.40;99.90
55036;DHT22;40936;53.008;6.556;2023-04-06T05:59:07;2.30;99.90
55036;DHT22;40936;53.008;6.556;2023-04-06T06:01:33;3.00;99.90
55036;DHT22;40936;53.008;6.556;2023-04-06T06:04:01;1.90;99.90
55036;DHT22;40936;53.008;6.556;2023-04-06T06:06:28;1.90;99.90
55036;DHT22;40936;53.008;6.556;2023-04-06T06:08:55;2.00;99.90
55036;DHT22;40936;53.008;6.556;2023-04-06T06:11:23;2.20;99.90
55036;DHT22;40936;53.008;6.556;2023-04-06T06:13:49;2.30;99.90
55036;DHT22;40936;53.008;6.556;2023-04-06T06:16:14;3.40;99.90
55036;DHT22;40936;53.008;6.556;2023-04-06T06:18:40;2.70;99.90
55036;DHT22;40936;53.008;6.556;2023-04-06T06:21:06;2.30;99.90
55036;DHT22;40936;53.008;6.556;2023-04-06T06:23:31;2.40;99.90
55036;DHT22;40936;53.008;6.556;2023-04-06T06:25:57;2.80;99.90
55036;DHT22;40936;53.008;6.556;2023-04-06T06:28:23;3.00;99.90
55036;DHT22;40936;53.008;6.556;2023-04-06T06:30:50;2.60;99.90
55036;DHT22;40936;53.008;6.556;2023-04-06T06:33:16;3.50;99.90
55036;DHT22;40936;53.008;6.556;2023-04-06T06:35:42;2.90;98.70
55036;DHT22;40936;53.008;6.556;2023-04-06T06:38:07;3.40;99.90
55036;DHT22;40936;53.008;6.556;2023-04-06T06:40:33;4.20;99.90
55036;DHT22;40936;53.008;6.556;2023-04-06T06:42:59;3.30;99.90
55036;DHT22;40936;53.008;6.556;2023-04-06T06:45:24;3.40;99.90
55036;DHT22;40936;53.008;6.556;2023-04-06T06:47:51;3.50;99.90
55036;DHT22;40936;53.008;6.556;2023-04-06T06:50:16;4.10;99.90
55036;DHT22;40936;53.008;6.556;2023-04-06T06:52:42;3.70;99.90
55036;DHT22;40936;53.008;6.556;2023-04-06T06:55:08;5.50;88.60
55036;DHT22;40936;53.008;6.556;2023-04-06T06:57:34;3.80;89.50
55036;DHT22;40936;53.008;6.556;2023-04-06T07:00:00;3.80;95.70
55036;DHT22;40936;53.008;6.556;2023-04-06T07:02:25;4.20;96.10
55036;DHT22;40936;53.008;6.556;2023-04-06T07:04:51;4.00;93.30
55036;DHT22;40936;53.008;6.556;2023-04-06T07:07:17;4.10;83.30
55036;DHT22;40936;53.008;6.556;2023-04-06T07:09:42;4.10;74.60
55036;DHT22;40936;53.008;6.556;2023-04-06T07:12:08;4.40;85.40
55036;DHT22;40936;53.008;6.556;2023-04-06T07:14:33;4.40;81.40
55036;DHT22;40936;53.008;6.556;2023-04-06T07:16:59;4.50;92.40
55036;DHT22;40936;53.008;6.556;2023-04-06T07:19:25;4.60;91.10
55036;DHT22;40936;53.008;6.556;2023-04-06T07:21:50;4.70;84.80
55036;DHT22;40936;53.008;6.556;2023-04-06T07:24:16;4.80;82.20
55036;DHT22;40936;53.008;6.556;2023-04-06T07:26:42;4.90;79.30
55036;DHT22;40936;53.008;6.556;2023-04-06T07:29:07;5.10;71.00
55036;DHT22;40936;53.008;6.556;2023-04-06T07:31:33;5.20;78.10
55036;DHT22;40936;53.008;6.556;2023-04-06T07:34:00;5.50;70.80
55036;DHT22;40936;53.008;6.556;2023-04-06T07:36:26;5.40;73.20
55036;DHT22;40936;53.008;6.556;2023-04-06T07:38:52;6.30;77.10
55036;DHT22;40936;53.008;6.556;2023-04-06T07:41:17;7.70;42.80
55036;DHT22;40936;53.008;6.556;2023-04-06T07:43:43;8.80;26.30
55036;DHT22;40936;53.008;6.556;2023-04-06T07:46:08;9.70;6.00
55036;DHT22;40936;53.008;6.556;2023-04-06T07:48:34;10.50;1.00
55036;DHT22;40936;53.008;6.556;2023-04-06T07:51:03;11.50;1.00
55036;DHT22;40936;53.008;6.556;2023-04-06T07:53:29;11.80;1.00
55036;DHT22;40936;53.008;6.556;2023-04-06T07:55:56;12.00;1.00
55036;DHT22;40936;53.008;6.556;2023-04-06T07:58:21;12.20;1.00
55036;DHT22;40936;53.008;6.556;2023-04-06T08:00:47;12.70;1.00
55036;DHT22;40936;53.008;6.556;2023-04-06T08:03:12;12.10;1.00
55036;DHT22;40936;53.008;6.556;2023-04-06T08:05:38;11.60;1.00
55036;DHT22;40936;53.008;6.556;2023-04-06T08:08:04;12.20;1.00
55036;DHT22;40936;53.008;6.556;2023-04-06T08:10:29;13.10;1.00
55036;DHT22;40936;53.008;6.556;2023-04-06T08:12:55;13.80;1.00
55036;DHT22;40936;53.008;6.556;2023-04-06T08:15:21;13.80;1.00
55036;DHT22;40936;53.008;6.556;2023-04-06T08:17:46;13.80;1.00
55036;DHT22;40936;53.008;6.556;2023-04-06T08:20:12;13.40;1.00
55036;DHT22;40936;53.008;6.556;2023-04-06T08:22:37;13.30;1.00
55036;DHT22;40936;53.008;6.556;2023-04-06T08:25:03;13.10;1.00
55036;DHT22;40936;53.008;6.556;2023-04-06T08:27:29;13.30;1.00
55036;DHT22;40936;53.008;6.556;2023-04-06T08:29:54;13.70;1.00
55036;DHT22;40936;53.008;6.556;2023-04-06T08:32:20;13.70;1.00
55036;DHT22;40936;53.008;6.556;2023-04-06T08:34:46;13.90;1.00
55036;DHT22;40936;53.008;6.556;2023-04-06T08:37:11;14.40;1.00
55036;DHT22;40936;53.008;6.556;2023-04-06T08:39:37;14.80;1.00
55036;DHT22;40936;53.008;6.556;2023-04-06T08:42:02;15.50;1.00
55036;DHT22;40936;53.008;6.556;2023-04-06T08:44:31;15.80;1.00
55036;DHT22;40936;53.008;6.556;2023-04-06T08:46:57;16.40;1.00
55036;DHT22;40936;53.008;6.556;2023-04-06T08:49:24;16.60;1.00
55036;DHT22;40936;53.008;6.556;2023-04-06T08:51:50;16.90;1.00
55036;DHT22;40936;53.008;6.556;2023-04-06T08:54:16;16.60;1.00
55036;DHT22;40936;53.008;6.556;2023-04-06T08:56:42;16.20;1.00
55036;DHT22;40936;53.008;6.556;2023-04-06T08:59:08;16.40;1.00
55036;DHT22;40936;53.008;6.556;2023-04-06T09:01:36;17.30;1.00
55036;DHT22;40936;53.008;6.556;2023-04-06T09:04:03;17.60;1.00
55036;DHT22;40936;53.008;6.556;2023-04-06T09:06:34;17.10;1.00
55036;DHT22;40936;53.008;6.556;2023-04-06T09:09:00;17.70;1.00
55036;DHT22;40936;53.008;6.556;2023-04-06T09:11:25;17.70;1.00
55036;DHT22;40936;53.008;6.556;2023-04-06T09:13:53;16.10;1.00
55036;DHT22;40936;53.008;6.556;2023-04-06T09:16:19;14.80;1.00
55036;DHT22;40936;53.008;6.556;2023-04-06T09:18:45;14.10;1.00
55036;DHT22;40936;53.008;6.556;2023-04-06T09:21:11;13.70;1.00
55036;DHT22;40936;53.008;6.556;2023-04-06T09:23:37;13.10;1.00
55036;DHT22;40936;53.008;6.556;2023-04-06T09:26:07;13.30;1.00
55036;DHT22;40936;53.008;6.556;2023-04-06T09:28:52;13.30;1.00
55036;DHT22;40936;53.008;6.556;2023-04-06T09:31:22;12.90;1.00
55036;DHT22;40936;53.008;6.556;2023-04-06T09:33:48;13.20;1.00
55036;DHT22;40936;53.008;6.556;2023-04-06T09:36:13;13.50;1.00
55036;DHT22;40936;53.008;6.556;2023-04-06T09:38:54;14.10;1.00
55036;DHT22;40936;53.008;6.556;2023-04-06T09:41:21;14.20;1.00
55036;DHT22;40936;53.008;6.556;2023-04-06T09:43:46;13.90;1.00
55036;DHT22;40936;53.008;6.556;2023-04-06T09:46:12;14.00;1.00
55036;DHT22;40936;53.008;6.556;2023-04-06T09:48:37;13.40;1.00
55036;DHT22;40936;53.008;6.556;2023-04-06T09:51:03;13.50;1.00
55036;DHT22;40936;53.008;6.556;2023-04-06T09:53:30;13.20;1.00
55036;DHT22;40936;53.008;6.556;2023-04-06T09:55:57;13.10;1.00
55036;DHT22;40936;53.008;6.556;2023-04-06T09:58:23;13.10;1.00
55036;DHT22;40936;53.008;6.556;2023-04-06T10:01:00;13.10;1.00
55036;DHT22;40936;53.008;6.556;2023-04-06T10:03:50;13.30;1.00
55036;DHT22;40936;53.008;6.556;2023-04-06T10:06:13;13.50;1.00
55036;DHT22;40936;53.008;6.556;2023-04-06T10:08:40;13.20;1.00
55036;DHT22;40936;53.008;6.556;2023-04-06T10:11:07;13.40;1.00
55036;DHT22;40936;53.008;6.556;2023-04-06T10:13:33;13.70;1.00
55036;DHT22;40936;53.008;6.556;2023-04-06T10:15:59;13.70;1.00
55036;DHT22;40936;53.008;6.556;2023-04-06T10:18:26;13.40;1.00
55036;DHT22;40936;53.008;6.556;2023-04-06T10:24:08;13.60;1.00
55036;DHT22;40936;53.008;6.556;2023-04-06T10:26:13;13.80;1.00
55036;DHT22;40936;53.008;6.556;2023-04-06T10:28:40;13.60;1.00
55036;DHT22;40936;53.008;6.556;2023-04-06T10:31:06;13.20;1.00
55036;DHT22;40936;53.008;6.556;2023-04-06T10:33:32;13.40;1.00
55036;DHT22;40936;53.008;6.556;2023-04-06T10:35:57;13.70;1.00
55036;DHT22;40936;53.008;6.556;2023-04-06T10:38:37;13.70;1.00
55036;DHT22;40936;53.008;6.556;2023-04-06T10:41:03;13.90;1.00
55036;DHT22;40936;53.008;6.556;2023-04-06T10:43:32;13.90;1.00
55036;DHT22;40936;53.008;6.556;2023-04-06T10:45:59;14.10;1.00
55036;DHT22;40936;53.008;6.556;2023-04-06T10:48:35;14.10;1.00
55036;DHT22;40936;53.008;6.556;2023-04-06T10:51:01;14.00;1.00
55036;DHT22;40936;53.008;6.556;2023-04-06T10:53:27;14.20;1.00
55036;DHT22;40936;53.008;6.556;2023-04-06T10:55:54;14.90;1.00
55036;DHT22;40936;53.008;6.556;2023-04-06T10:58:20;15.00;1.00
55036;DHT22;40936;53.008;6.556;2023-04-06T11:00:48;15.30;1.00
55036;DHT22;40936;53.008;6.556;2023-04-06T11:03:14;14.60;1.00
55036;DHT22;40936;53.008;6.556;2023-04-06T11:05:43;14.40;1.00
55036;DHT22;40936;53.008;6.556;2023-04-06T11:08:09;14.50;1.00
55036;DHT22;40936;53.008;6.556;2023-04-06T11:10:34;14.30;1.00
55036;DHT22;40936;53.008;6.556;2023-04-06T11:13:00;14.20;1.00
55036;DHT22;40936;53.008;6.556;2023-04-06T11:15:26;13.70;1.00
55036;DHT22;40936;53.008;6.556;2023-04-06T11:17:51;13.70;1.00
55036;DHT22;40936;53.008;6.556;2023-04-06T11:20:17;13.70;1.00
55036;DHT22;40936;53.008;6.556;2023-04-06T11:22:51;13.70;1.00
55036;DHT22;40936;53.008;6.556;2023-04-06T11:25:17;15.40;1.00
55036;DHT22;40936;53.008;6.556;2023-04-06T11:27:43;13.70;1.00
55036;DHT22;40936;53.008;6.556;2023-04-06T11:30:08;13.70;1.00
55036;DHT22;40936;53.008;6.556;2023-04-06T11:32:44;13.80;1.00
55036;DHT22;40936;53.008;6.556;2023-04-06T11:35:10;13.50;1.00
55036;DHT22;40936;53.008;6.556;2023-04-06T11:37:36;13.10;1.00
55036;DHT22;40936;53.008;6.556;2023-04-06T11:40:02;13.20;1.00
55036;DHT22;40936;53.008;6.556;2023-04-06T11:42:28;13.30;1.00
55036;DHT22;40936;53.008;6.556;2023-04-06T11:44:55;12.80;1.00
55036;DHT22;40936;53.008;6.556;2023-04-06T11:47:27;12.50;1.00
55036;DHT22;40936;53.008;6.556;2023-04-06T11:49:52;12.40;1.00
55036;DHT22;40936;53.008;6.556;2023-04-06T11:52:23;12.50;1.00
55036;DHT22;40936;53.008;6.556;2023-04-06T11:54:49;12.70;1.00
55036;DHT22;40936;53.008;6.556;2023-04-06T11:57:16;12.70;1.00
55036;DHT22;40936;53.008;6.556;2023-04-06T11:59:42;12.90;1.00
55036;DHT22;40936;53.008;6.556;2023-04-06T12:02:07;13.00;1.00
55036;DHT22;40936;53.008;6.556;2023-04-06T12:04:34;13.20;1.00
55036;DHT22;40936;53.008;6.556;2023-04-06T12:07:00;13.30;1.00
55036;DHT22;40936;53.008;6.556;2023-04-06T12:09:25;13.00;1.00
55036;DHT22;40936;53.008;6.556;2023-04-06T12:11:51;13.00;1.00
55036;DHT22;40936;53.008;6.556;2023-04-06T12:14:17;13.10;1.00
55036;DHT22;40936;53.008;6.556;2023-04-06T12:16:42;13.20;1.00
55036;DHT22;40936;53.008;6.556;2023-04-06T12:19:09;13.20;1.00
55036;DHT22;40936;53.008;6.556;2023-04-06T12:21:35;13.40;1.00
55036;DHT22;40936;53.008;6.556;2023-04-06T12:24:02;14.10;1.00
55036;DHT22;40936;53.008;6.556;2023-04-06T12:26:29;13.60;1.00
55036;DHT22;40936;53.008;6.556;2023-04-06T12:28:54;13.60;1.00
55036;DHT22;40936;53.008;6.556;2023-04-06T12:31:21;13.40;1.00
55036;DHT22;40936;53.008;6.556;2023-04-06T12:33:47;13.30;1.00
55036;DHT22;40936;53.008;6.556;2023-04-06T12:36:13;13.30;1.00
55036;DHT22;40936;53.008;6.556;2023-04-06T12:38:39;13.10;1.00
55036;DHT22;40936;53.008;6.556;2023-04-06T12:41:06;13.20;1.00
55036;DHT22;40936;53.008;6.556;2023-04-06T12:43:32;13.30;1.00
55036;DHT22;40936;53.008;6.556;2023-04-06T12:45:57;13.10;1.00
55036;DHT22;40936;53.008;6.556;2023-04-06T12:48:23;13.10;1.00
55036;DHT22;40936;53.008;6.556;2023-04-06T12:50:57;13.20;1.00
55036;DHT22;40936;53.008;6.556;2023-04-06T12:53:23;13.00;1.00
55036;DHT22;40936;53.008;6.556;2023-04-06T12:55:48;13.20;1.00
55036;DHT22;40936;53.008;6.556;2023-04-06T12:58:14;13.30;1.00
55036;DHT22;40936;53.008;6.556;2023-04-06T13:00:40;13.30;1.00
55036;DHT22;40936;53.008;6.556;2023-04-06T13:03:06;13.40;1.00
55036;DHT22;40936;53.008;6.556;2023-04-06T13:05:32;13.50;1.00
55036;DHT22;40936;53.008;6.556;2023-04-06T13:07:58;13.50;1.00
55036;DHT22;40936;53.008;6.556;2023-04-06T13:10:23;13.60;1.00
55036;DHT22;40936;53.008;6.556;2023-04-06T13:12:49;13.70;1.00
55036;DHT22;40936;53.008;6.556;2023-04-06T13:15:14;13.60;1.00
55036;DHT22;40936;53.008;6.556;2023-04-06T13:17:40;13.70;1.00
55036;DHT22;40936;53.008;6.556;2023-04-06T13:20:06;13.70;1.00
55036;DHT22;40936;53.008;6.556;2023-04-06T13:22:32;13.60;1.00
55036;DHT22;40936;53.008;6.556;2023-04-06T13:24:57;13.70;1.00
55036;DHT22;40936;53.008;6.556;2023-04-06T13:27:23;13.70;1.00
55036;DHT22;40936;53.008;6.556;2023-04-06T13:29:48;13.60;1.00
55036;DHT22;40936;53.008;6.556;2023-04-06T13:32:14;13.50;1.00
55036;DHT22;40936;53.008;6.556;2023-04-06T13:34:40;13.60;1.00
55036;DHT22;40936;53.008;6.556;2023-04-06T13:37:12;13.70;1.00
55036;DHT22;40936;53.008;6.556;2023-04-06T13:39:38;13.40;1.00
55036;DHT22;40936;53.008;6.556;2023-04-06T13:42:04;13.30;1.00
55036;DHT22;40936;53.008;6.556;2023-04-06T13:44:30;13.10;1.00
55036;DHT22;40936;53.008;6.556;2023-04-06T13:46:56;13.00;1.00
55036;DHT22;40936;53.008;6.556;2023-04-06T13:49:24;12.80;1.00
55036;DHT22;40936;53.008;6.556;2023-04-06T13:51:49;12.60;1.00
55036;DHT22;40936;53.008;6.556;2023-04-06T13:54:15;12.70;1.00
55036;DHT22;40936;53.008;6.556;2023-04-06T13:56:41;12.50;1.00
55036;DHT22;40936;53.008;6.556;2023-04-06T13:59:06;12.50;1.00
55036;DHT22;40936;53.008;6.556;2023-04-06T14:01:32;12.50;1.00
55036;DHT22;40936;53.008;6.556;2023-04-06T14:03:57;12.40;1.00
55036;DHT22;40936;53.008;6.556;2023-04-06T14:06:23;12.30;1.00
55036;DHT22;40936;53.008;6.556;2023-04-06T14:08:48;12.40;1.00
55036;DHT22;40936;53.008;6.556;2023-04-06T14:11:14;12.40;1.00
55036;DHT22;40936;53.008;6.556;2023-04-06T14:13:40;12.30;1.00
55036;DHT22;40936;53.008;6.556;2023-04-06T14:16:06;12.30;1.00
55036;DHT22;40936;53.008;6.556;2023-04-06T14:18:32;12.50;1.00
55036;DHT22;40936;53.008;6.556;2023-04-06T14:20:59;12.40;1.00
55036;DHT22;40936;53.008;6.556;2023-04-06T14:23:27;12.30;1.00
55036;DHT22;40936;53.008;6.556;2023-04-06T14:26:05;12.30;1.00
55036;DHT22;40936;53.008;6.556;2023-04-06T14:28:34;12.20;1.00
55036;DHT22;40936;53.008;6.556;2023-04-06T14:31:00;12.10;1.00
55036;DHT22;40936;53.008;6.556;2023-04-06T14:33:26;12.10;1.00
55036;DHT22;40936;53.008;6.556;2023-04-06T14:35:52;11.90;1.00
55036;DHT22;40936;53.008;6.556;2023-04-06T14:38:18;11.90;1.00
55036;DHT22;40936;53.008;6.556;2023-04-06T14:40:43;11.90;1.00
55036;DHT22;40936;53.008;6.556;2023-04-06T14:43:09;11.80;1.00
55036;DHT22;40936;53.008;6.556;2023-04-06T14:45:35;11.70;1.00
55036;DHT22;40936;53.008;6.556;2023-04-06T14:48:02;11.50;1.00
55036;DHT22;40936;53.008;6.556;2023-04-06T14:50:28;11.60;1.00
55036;DHT22;40936;53.008;6.556;2023-04-06T14:52:53;11.50;1.00
55036;DHT22;40936;53.008;6.556;2023-04-06T14:55:19;11.40;1.00
55036;DHT22;40936;53.008;6.556;2023-04-06T14:57:44;11.50;1.00
55036;DHT22;40936;53.008;6.556;2023-04-06T15:00:10;11.40;1.00
55036;DHT22;40936;53.008;6.556;2023-04-06T15:02:36;11.30;1.00
55036;DHT22;40936;53.008;6.556;2023-04-06T15:05:02;11.30;1.00
55036;DHT22;40936;53.008;6.556;2023-04-06T15:07:28;11.30;1.00
55036;DHT22;40936;53.008;6.556;2023-04-06T15:09:54;11.30;1.00
55036;DHT22;40936;53.008;6.556;2023-04-06T15:12:19;11.20;1.00
55036;DHT22;40936;53.008;6.556;2023-04-06T15:14:45;11.20;1.00
55036;DHT22;40936;53.008;6.556;2023-04-06T15:17:11;11.10;1.00
55036;DHT22;40936;53.008;6.556;2023-04-06T15:19:36;11.10;1.00
55036;DHT22;40936;53.008;6.556;2023-04-06T15:22:02;11.00;1.00
55036;DHT22;40936;53.008;6.556;2023-04-06T15:24:27;11.00;1.00
55036;DHT22;40936;53.008;6.556;2023-04-06T15:26:53;10.80;1.00
55036;DHT22;40936;53.008;6.556;2023-04-06T15:29:18;10.70;1.00
55036;DHT22;40936;53.008;6.556;2023-04-06T15:31:44;10.70;1.00
55036;DHT22;40936;53.008;6.556;2023-04-06T15:34:11;10.60;8.00
55036;DHT22;40936;53.008;6.556;2023-04-06T15:36:37;10.20;30.60
55036;DHT22;40936;53.008;6.556;2023-04-06T15:39:05;10.00;33.20
55036;DHT22;40936;53.008;6.556;2023-04-06T15:41:33;9.80;33.90
55036;DHT22;40936;53.008;6.556;2023-04-06T15:43:59;9.70;55.40
55036;DHT22;40936;53.008;6.556;2023-04-06T15:46:25;9.60;64.80
55036;DHT22;40936;53.008;6.556;2023-04-06T15:48:52;9.90;72.50
55036;DHT22;40936;53.008;6.556;2023-04-06T15:51:17;9.30;77.00
55036;DHT22;40936;53.008;6.556;2023-04-06T15:53:43;9.20;99.90
55036;DHT22;40936;53.008;6.556;2023-04-06T15:56:09;9.10;99.90
55036;DHT22;40936;53.008;6.556;2023-04-06T15:58:35;9.00;99.90
55036;DHT22;40936;53.008;6.556;2023-04-06T16:01:01;9.30;99.90